sensor_id;sensor_type;location;lat;lon;timestamp;P1;durP1;ratioP1;P2;durP2;ratioP2
13026;SDS011;6580;42.680;23.324;2023-04-24T00:00:20;5.80;;;5.20;;
13026;SDS011;6580;42.680;23.324;2023-04-24T00:03:06;6.23;;;5.53;;
13026;SDS011;6580;42.680;23.324;2023-04-24T00:05:52;7.80;;;5.10;;
13026;SDS011;6580;42.680;23.324;2023-04-24T00:08:39;5.40;;;4.90;;
13026;SDS011;6580;42.680;23.324;2023-04-24T00:11:24;6.33;;;4.83;;
13026;SDS011;6580;42.680;23.324;2023-04-24T00:14:10;6.50;;;4.43;;
13026;SDS011;6580;42.680;23.324;2023-04-24T00:16:57;4.83;;;4.37;;
13026;SDS011;6580;42.680;23.324;2023-04-24T00:19:42;5.10;;;4.57;;
13026;SDS011;6580;42.680;23.324;2023-04-24T00:22:28;4.80;;;4.13;;
13026;SDS011;6580;42.680;23.324;2023-04-24T00:25:13;4.93;;;4.23;;
13026;SDS011;6580;42.680;23.324;2023-04-24T00:27:59;6.37;;;4.20;;
13026;SDS011;6580;42.680;23.324;2023-04-24T00:30:47;4.70;;;4.27;;
13026;SDS011;6580;42.680;23.324;2023-04-24T00:33:34;4.43;;;4.03;;
13026;SDS011;6580;42.680;23.324;2023-04-24T00:36:20;4.90;;;4.40;;
13026;SDS011;6580;42.680;23.324;2023-04-24T00:39:07;5.30;;;4.57;;
13026;SDS011;6580;42.680;23.324;2023-04-24T00:41:55;4.70;;;4.30;;
13026;SDS011;6580;42.680;23.324;2023-04-24T00:44:42;5.43;;;4.93;;
13026;SDS011;6580;42.680;23.324;2023-04-24T00:47:28;4.33;;;3.83;;
13026;SDS011;6580;42.680;23.324;2023-04-24T00:50:15;4.90;;;4.50;;
13026;SDS011;6580;42.680;23.324;2023-04-24T00:53:01;8.23;;;4.17;;
13026;SDS011;6580;42.680;23.324;2023-04-24T00:55:46;4.40;;;4.00;;
13026;SDS011;6580;42.680;23.324;2023-04-24T00:58:32;4.63;;;3.67;;
13026;SDS011;6580;42.680;23.324;2023-04-24T01:01:18;4.27;;;3.87;;
13026;SDS011;6580;42.680;23.324;2023-04-24T01:04:06;4.37;;;3.97;;
13026;SDS011;6580;42.680;23.324;2023-04-24T01:06:55;3.33;;;3.10;;
13026;SDS011;6580;42.680;23.324;2023-04-24T01:09:42;4.13;;;3.80;;
13026;SDS011;6580;42.680;23.324;2023-04-24T01:12:32;4.20;;;3.90;;
13026;SDS011;6580;42.680;23.324;2023-04-24T01:15:18;4.80;;;4.30;;
13026;SDS011;6580;42.680;23.324;2023-04-24T01:18:05;4.40;;;4.00;;
13026;SDS011;6580;42.680;23.324;2023-04-24T01:20:53;4.87;;;3.90;;
13026;SDS011;6580;42.680;23.324;2023-04-24T01:23:45;4.90;;;4.40;;
13026;SDS011;6580;42.680;23.324;2023-04-24T01:26:31;4.73;;;4.33;;
13026;SDS011;6580;42.680;23.324;2023-04-24T01:29:20;5.20;;;3.67;;
13026;SDS011;6580;42.680;23.324;2023-04-24T01:32:06;5.37;;;4.30;;
13026;SDS011;6580;42.680;23.324;2023-04-24T01:34:54;4.90;;;4.40;;
13026;SDS011;6580;42.680;23.324;2023-04-24T01:37:42;4.70;;;4.23;;
13026;SDS011;6580;42.680;23.324;2023-04-24T01:40:32;4.70;;;3.43;;
13026;SDS011;6580;42.680;23.324;2023-04-24T01:43:18;4.43;;;4.03;;
13026;SDS011;6580;42.680;23.324;2023-04-24T01:46:04;4.77;;;4.33;;
13026;SDS011;6580;42.680;23.324;2023-04-24T01:48:49;4.67;;;4.27;;
13026;SDS011;6580;42.680;23.324;2023-04-24T01:51:37;3.90;;;3.60;;
13026;SDS011;6580;42.680;23.324;2023-04-24T01:54:23;4.70;;;4.07;;
13026;SDS011;6580;42.680;23.324;2023-04-24T01:57:10;4.13;;;3.63;;
13026;SDS011;6580;42.680;23.324;2023-04-24T01:59:55;4.13;;;3.83;;
13026;SDS011;6580;42.680;23.324;2023-04-24T02:02:41;4.57;;;4.17;;
13026;SDS011;6580;42.680;23.324;2023-04-24T02:05:27;4.90;;;4.03;;
13026;SDS011;6580;42.680;23.324;2023-04-24T02:08:13;4.50;;;3.87;;
13026;SDS011;6580;42.680;23.324;2023-04-24T02:10:58;4.60;;;4.00;;
13026;SDS011;6580;42.680;23.324;2023-04-24T02:13:46;4.77;;;4.33;;
13026;SDS011;6580;42.680;23.324;2023-04-24T02:16:32;4.60;;;4.20;;
13026;SDS011;6580;42.680;23.324;2023-04-24T02:19:19;4.43;;;4.03;;
13026;SDS011;6580;42.680;23.324;2023-04-24T02:22:05;4.10;;;3.70;;
13026;SDS011;6580;42.680;23.324;2023-04-24T02:24:53;4.63;;;4.23;;
13026;SDS011;6580;42.680;23.324;2023-04-24T02:27:38;4.80;;;4.40;;
13026;SDS011;6580;42.680;23.324;2023-04-24T02:30:26;5.23;;;4.30;;
13026;SDS011;6580;42.680;23.324;2023-04-24T02:33:11;5.00;;;4.60;;
13026;SDS011;6580;42.680;23.324;2023-04-24T02:35:57;4.63;;;4.03;;
13026;SDS011;6580;42.680;23.324;2023-04-24T02:38:44;6.27;;;4.30;;
13026;SDS011;6580;42.680;23.324;2023-04-24T02:41:33;4.60;;;4.27;;
13026;SDS011;6580;42.680;23.324;2023-04-24T02:44:19;5.27;;;4.77;;
13026;SDS011;6580;42.680;23.324;2023-04-24T02:47:06;6.93;;;4.70;;
13026;SDS011;6580;42.680;23.324;2023-04-24T02:49:52;5.30;;;4.80;;
13026;SDS011;6580;42.680;23.324;2023-04-24T02:52:39;5.43;;;4.83;;
13026;SDS011;6580;42.680;23.324;2023-04-24T02:55:24;6.03;;;4.70;;
13026;SDS011;6580;42.680;23.324;2023-04-24T02:58:09;6.03;;;4.97;;
13026;SDS011;6580;42.680;23.324;2023-04-24T03:00:56;5.50;;;5.00;;
13026;SDS011;6580;42.680;23.324;2023-04-24T03:03:44;4.53;;;4.13;;
13026;SDS011;6580;42.680;23.324;2023-04-24T03:06:29;5.13;;;4.63;;
13026;SDS011;6580;42.680;23.324;2023-04-24T03:09:16;5.00;;;4.43;;
13026;SDS011;6580;42.680;23.324;2023-04-24T03:12:02;5.50;;;4.90;;
13026;SDS011;6580;42.680;23.324;2023-04-24T03:14:47;5.23;;;4.73;;
13026;SDS011;6580;42.680;23.324;2023-04-24T03:17:32;4.77;;;4.20;;
13026;SDS011;6580;42.680;23.324;2023-04-24T03:20:20;5.60;;;4.97;;
13026;SDS011;6580;42.680;23.324;2023-04-24T03:23:06;8.00;;;5.17;;
13026;SDS011;6580;42.680;23.324;2023-04-24T03:25:51;5.57;;;4.80;;
13026;SDS011;6580;42.680;23.324;2023-04-24T03:28:38;4.93;;;4.40;;
13026;SDS011;6580;42.680;23.324;2023-04-24T03:31:24;6.67;;;5.20;;
13026;SDS011;6580;42.680;23.324;2023-04-24T03:34:10;7.30;;;5.00;;
13026;SDS011;6580;42.680;23.324;2023-04-24T03:36:57;6.33;;;5.43;;
13026;SDS011;6580;42.680;23.324;2023-04-24T03:39:42;6.37;;;5.47;;
13026;SDS011;6580;42.680;23.324;2023-04-24T03:42:29;5.30;;;4.80;;
13026;SDS011;6580;42.680;23.324;2023-04-24T03:45:15;5.67;;;5.17;;
13026;SDS011;6580;42.680;23.324;2023-04-24T03:48:02;6.10;;;5.47;;
13026;SDS011;6580;42.680;23.324;2023-04-24T03:50:48;6.00;;;5.40;;
13026;SDS011;6580;42.680;23.324;2023-04-24T03:53:40;7.20;;;5.37;;
13026;SDS011;6580;42.680;23.324;2023-04-24T03:56:25;5.97;;;5.37;;
13026;SDS011;6580;42.680;23.324;2023-04-24T03:59:10;7.20;;;6.13;;
13026;SDS011;6580;42.680;23.324;2023-04-24T04:01:57;8.60;;;6.43;;
13026;SDS011;6580;42.680;23.324;2023-04-24T04:04:43;6.27;;;5.47;;
13026;SDS011;6580;42.680;23.324;2023-04-24T04:07:31;7.13;;;5.37;;
13026;SDS011;6580;42.680;23.324;2023-04-24T04:10:18;7.23;;;5.57;;
13026;SDS011;6580;42.680;23.324;2023-04-24T04:13:07;8.10;;;5.87;;
13026;SDS011;6580;42.680;23.324;2023-04-24T04:15:53;6.70;;;5.70;;
13026;SDS011;6580;42.680;23.324;2023-04-24T04:18:39;6.23;;;5.63;;
13026;SDS011;6580;42.680;23.324;2023-04-24T04:21:26;8.03;;;5.67;;
13026;SDS011;6580;42.680;23.324;2023-04-24T04:24:16;5.23;;;4.77;;
13026;SDS011;6580;42.680;23.324;2023-04-24T04:27:10;7.10;;;5.33;;
13026;SDS011;6580;42.680;23.324;2023-04-24T04:30:00;4.60;;;4.20;;
13026;SDS011;6580;42.680;23.324;2023-04-24T04:32:48;4.77;;;4.37;;
13026;SDS011;6580;42.680;23.324;2023-04-24T04:35:34;4.13;;;3.83;;
13026;SDS011;6580;42.680;23.324;2023-04-24T04:38:22;4.27;;;3.90;;
13026;SDS011;6580;42.680;23.324;2023-04-24T04:41:13;4.60;;;3.90;;
13026;SDS011;6580;42.680;23.324;2023-04-24T04:44:08;4.90;;;4.20;;
13026;SDS011;6580;42.680;23.324;2023-04-24T04:46:54;3.70;;;3.40;;
13026;SDS011;6580;42.680;23.324;2023-04-24T04:49:49;4.10;;;3.80;;
13026;SDS011;6580;42.680;23.324;2023-04-24T04:52:38;3.87;;;3.57;;
13026;SDS011;6580;42.680;23.324;2023-04-24T04:55:23;5.03;;;4.13;;
13026;SDS011;6580;42.680;23.324;2023-04-24T04:58:11;5.50;;;3.90;;
13026;SDS011;6580;42.680;23.324;2023-04-24T05:00:59;3.70;;;3.40;;
13026;SDS011;6580;42.680;23.324;2023-04-24T05:03:45;5.17;;;3.90;;
13026;SDS011;6580;42.680;23.324;2023-04-24T05:06:31;4.37;;;3.83;;
13026;SDS011;6580;42.680;23.324;2023-04-24T05:09:20;4.23;;;3.87;;
13026;SDS011;6580;42.680;23.324;2023-04-24T05:12:11;4.10;;;3.70;;
13026;SDS011;6580;42.680;23.324;2023-04-24T05:14:56;5.67;;;4.17;;
13026;SDS011;6580;42.680;23.324;2023-04-24T05:17:43;4.60;;;4.20;;
13026;SDS011;6580;42.680;23.324;2023-04-24T05:20:28;4.20;;;3.80;;
13026;SDS011;6580;42.680;23.324;2023-04-24T05:23:14;4.40;;;4.00;;
13026;SDS011;6580;42.680;23.324;2023-04-24T05:25:59;4.90;;;4.50;;
13026;SDS011;6580;42.680;23.324;2023-04-24T05:28:47;5.00;;;4.50;;
13026;SDS011;6580;42.680;23.324;2023-04-24T05:31:33;4.50;;;4.07;;
13026;SDS011;6580;42.680;23.324;2023-04-24T05:34:20;5.37;;;4.83;;
13026;SDS011;6580;42.680;23.324;2023-04-24T05:37:05;4.47;;;4.07;;
13026;SDS011;6580;42.680;23.324;2023-04-24T05:39:53;7.10;;;5.10;;
13026;SDS011;6580;42.680;23.324;2023-04-24T05:42:39;5.03;;;4.60;;
13026;SDS011;6580;42.680;23.324;2023-04-24T05:45:25;8.07;;;5.43;;
13026;SDS011;6580;42.680;23.324;2023-04-24T05:48:10;8.10;;;4.77;;
13026;SDS011;6580;42.680;23.324;2023-04-24T05:50:58;5.50;;;4.73;;
13026;SDS011;6580;42.680;23.324;2023-04-24T05:53:43;7.03;;;5.40;;
13026;SDS011;6580;42.680;23.324;2023-04-24T05:56:29;6.30;;;5.67;;
13026;SDS011;6580;42.680;23.324;2023-04-24T05:59:15;7.50;;;5.70;;
13026;SDS011;6580;42.680;23.324;2023-04-24T06:02:05;5.63;;;5.13;;
13026;SDS011;6580;42.680;23.324;2023-04-24T06:04:51;5.77;;;4.93;;
13026;SDS011;6580;42.680;23.324;2023-04-24T06:07:38;6.50;;;5.87;;
13026;SDS011;6580;42.680;23.324;2023-04-24T06:10:24;5.37;;;4.87;;
13026;SDS011;6580;42.680;23.324;2023-04-24T06:13:11;7.13;;;5.33;;
13026;SDS011;6580;42.680;23.324;2023-04-24T06:15:56;7.60;;;6.00;;
13026;SDS011;6580;42.680;23.324;2023-04-24T06:18:41;7.30;;;5.70;;
13026;SDS011;6580;42.680;23.324;2023-04-24T06:21:27;5.77;;;5.27;;
13026;SDS011;6580;42.680;23.324;2023-04-24T06:24:15;6.63;;;5.40;;
13026;SDS011;6580;42.680;23.324;2023-04-24T06:27:00;6.50;;;5.27;;
13026;SDS011;6580;42.680;23.324;2023-04-24T06:29:46;8.47;;;5.73;;
13026;SDS011;6580;42.680;23.324;2023-04-24T06:32:38;6.73;;;5.10;;
13026;SDS011;6580;42.680;23.324;2023-04-24T06:35:23;6.00;;;5.50;;
13026;SDS011;6580;42.680;23.324;2023-04-24T06:38:09;6.33;;;5.73;;
13026;SDS011;6580;42.680;23.324;2023-04-24T06:40:57;7.13;;;5.63;;
13026;SDS011;6580;42.680;23.324;2023-04-24T06:43:43;6.38;;;5.78;;
13026;SDS011;6580;42.680;23.324;2023-04-24T06:46:29;6.63;;;6.03;;
13026;SDS011;6580;42.680;23.324;2023-04-24T06:49:15;6.50;;;5.90;;
13026;SDS011;6580;42.680;23.324;2023-04-24T06:52:02;6.60;;;5.90;;
13026;SDS011;6580;42.680;23.324;2023-04-24T06:54:48;8.20;;;5.90;;
13026;SDS011;6580;42.680;23.324;2023-04-24T06:57:35;7.07;;;6.47;;
13026;SDS011;6580;42.680;23.324;2023-04-24T07:00:20;6.70;;;6.10;;
13026;SDS011;6580;42.680;23.324;2023-04-24T07:03:07;6.22;;;5.45;;
13026;SDS011;6580;42.680;23.324;2023-04-24T07:05:54;6.07;;;5.47;;
13026;SDS011;6580;42.680;23.324;2023-04-24T07:08:41;6.75;;;6.05;;
13026;SDS011;6580;42.680;23.324;2023-04-24T07:11:27;7.10;;;6.35;;
13026;SDS011;6580;42.680;23.324;2023-04-24T07:14:15;7.40;;;6.28;;
13026;SDS011;6580;42.680;23.324;2023-04-24T07:17:01;8.47;;;6.17;;
13026;SDS011;6580;42.680;23.324;2023-04-24T07:19:47;6.88;;;6.28;;
13026;SDS011;6580;42.680;23.324;2023-04-24T07:22:35;5.97;;;5.32;;
13026;SDS011;6580;42.680;23.324;2023-04-24T07:25:21;6.10;;;5.50;;
13026;SDS011;6580;42.680;23.324;2023-04-24T07:28:07;6.22;;;5.63;;
13026;SDS011;6580;42.680;23.324;2023-04-24T07:30:55;6.38;;;5.78;;
13026;SDS011;6580;42.680;23.324;2023-04-24T07:33:41;6.32;;;5.72;;
13026;SDS011;6580;42.680;23.324;2023-04-24T07:36:26;6.95;;;5.57;;
13026;SDS011;6580;42.680;23.324;2023-04-24T07:39:12;6.43;;;5.82;;
13026;SDS011;6580;42.680;23.324;2023-04-24T07:41:57;5.95;;;5.38;;
13026;SDS011;6580;42.680;23.324;2023-04-24T07:44:43;5.78;;;5.20;;
13026;SDS011;6580;42.680;23.324;2023-04-24T07:47:31;5.75;;;5.00;;
13026;SDS011;6580;42.680;23.324;2023-04-24T07:50:17;5.68;;;4.82;;
13026;SDS011;6580;42.680;23.324;2023-04-24T07:53:03;6.13;;;5.15;;
13026;SDS011;6580;42.680;23.324;2023-04-24T07:55:49;5.43;;;4.90;;
13026;SDS011;6580;42.680;23.324;2023-04-24T07:58:36;7.53;;;5.15;;
13026;SDS011;6580;42.680;23.324;2023-04-24T08:01:22;4.90;;;4.50;;
13026;SDS011;6580;42.680;23.324;2023-04-24T08:04:09;4.82;;;4.43;;
13026;SDS011;6580;42.680;23.324;2023-04-24T08:06:54;4.85;;;4.45;;
13026;SDS011;6580;42.680;23.324;2023-04-24T08:09:40;5.70;;;5.20;;
13026;SDS011;6580;42.680;23.324;2023-04-24T08:12:25;5.35;;;4.85;;
13026;SDS011;6580;42.680;23.324;2023-04-24T08:15:13;6.15;;;5.15;;
13026;SDS011;6580;42.680;23.324;2023-04-24T08:17:58;5.40;;;4.90;;
13026;SDS011;6580;42.680;23.324;2023-04-24T08:20:45;5.25;;;4.85;;
13026;SDS011;6580;42.680;23.324;2023-04-24T08:23:32;5.20;;;4.70;;
13026;SDS011;6580;42.680;23.324;2023-04-24T08:26:17;5.88;;;5.28;;
13026;SDS011;6580;42.680;23.324;2023-04-24T08:29:02;6.28;;;5.78;;
13026;SDS011;6580;42.680;23.324;2023-04-24T08:31:50;5.20;;;4.70;;
13026;SDS011;6580;42.680;23.324;2023-04-24T08:34:35;5.30;;;4.53;;
13026;SDS011;6580;42.680;23.324;2023-04-24T08:37:24;6.82;;;5.38;;
13026;SDS011;6580;42.680;23.324;2023-04-24T08:40:11;6.72;;;6.13;;
13026;SDS011;6580;42.680;23.324;2023-04-24T08:42:59;5.90;;;5.40;;
13026;SDS011;6580;42.680;23.324;2023-04-24T08:45:45;5.90;;;5.32;;
13026;SDS011;6580;42.680;23.324;2023-04-24T08:48:30;4.97;;;4.47;;
13026;SDS011;6580;42.680;23.324;2023-04-24T08:51:16;4.40;;;4.10;;
13026;SDS011;6580;42.680;23.324;2023-04-24T08:54:05;5.00;;;4.55;;
13026;SDS011;6580;42.680;23.324;2023-04-24T08:56:54;5.20;;;4.70;;
13026;SDS011;6580;42.680;23.324;2023-04-24T08:59:44;4.63;;;4.28;;
13026;SDS011;6580;42.680;23.324;2023-04-24T09:02:32;5.18;;;4.65;;
13026;SDS011;6580;42.680;23.324;2023-04-24T09:05:20;4.25;;;3.92;;
13026;SDS011;6580;42.680;23.324;2023-04-24T09:08:07;4.28;;;3.97;;
13026;SDS011;6580;42.680;23.324;2023-04-24T09:10:56;4.38;;;3.97;;
13026;SDS011;6580;42.680;23.324;2023-04-24T09:13:46;5.22;;;3.97;;
13026;SDS011;6580;42.680;23.324;2023-04-24T09:16:33;4.63;;;4.10;;
13026;SDS011;6580;42.680;23.324;2023-04-24T09:19:19;4.28;;;3.88;;
13026;SDS011;6580;42.680;23.324;2023-04-24T09:22:06;5.15;;;4.75;;
13026;SDS011;6580;42.680;23.324;2023-04-24T09:24:59;5.63;;;4.18;;
13026;SDS011;6580;42.680;23.324;2023-04-24T09:27:49;5.10;;;4.65;;
13026;SDS011;6580;42.680;23.324;2023-04-24T09:30:41;4.72;;;4.35;;
13026;SDS011;6580;42.680;23.324;2023-04-24T09:33:30;4.43;;;4.13;;
13026;SDS011;6580;42.680;23.324;2023-04-24T09:36:17;3.83;;;3.53;;
13026;SDS011;6580;42.680;23.324;2023-04-24T09:39:06;4.60;;;4.20;;
13026;SDS011;6580;42.680;23.324;2023-04-24T09:41:55;5.35;;;4.85;;
13026;SDS011;6580;42.680;23.324;2023-04-24T09:44:44;4.60;;;3.97;;
13026;SDS011;6580;42.680;23.324;2023-04-24T09:47:36;3.70;;;3.40;;
13026;SDS011;6580;42.680;23.324;2023-04-24T09:50:22;4.45;;;3.70;;
13026;SDS011;6580;42.680;23.324;2023-04-24T09:53:08;3.85;;;3.50;;
13026;SDS011;6580;42.680;23.324;2023-04-24T09:55:54;5.95;;;3.90;;
13026;SDS011;6580;42.680;23.324;2023-04-24T09:58:40;4.95;;;3.88;;
13026;SDS011;6580;42.680;23.324;2023-04-24T10:01:32;3.75;;;3.45;;
13026;SDS011;6580;42.680;23.324;2023-04-24T10:04:22;3.88;;;3.58;;
13026;SDS011;6580;42.680;23.324;2023-04-24T10:07:09;3.70;;;3.40;;
13026;SDS011;6580;42.680;23.324;2023-04-24T10:09:55;3.85;;;3.40;;
13026;SDS011;6580;42.680;23.324;2023-04-24T10:12:40;4.10;;;3.70;;
13026;SDS011;6580;42.680;23.324;2023-04-24T10:15:28;6.28;;;3.63;;
13026;SDS011;6580;42.680;23.324;2023-04-24T10:18:17;4.18;;;3.50;;
13026;SDS011;6580;42.680;23.324;2023-04-24T10:21:06;4.15;;;3.83;;
13026;SDS011;6580;42.680;23.324;2023-04-24T10:23:51;3.75;;;3.42;;
13026;SDS011;6580;42.680;23.324;2023-04-24T10:26:41;4.07;;;3.67;;
13026;SDS011;6580;42.680;23.324;2023-04-24T10:29:28;5.00;;;3.53;;
13026;SDS011;6580;42.680;23.324;2023-04-24T10:32:18;4.00;;;3.70;;
13026;SDS011;6580;42.680;23.324;2023-04-24T10:35:06;3.70;;;3.40;;
13026;SDS011;6580;42.680;23.324;2023-04-24T10:37:54;4.55;;;3.38;;
13026;SDS011;6580;42.680;23.324;2023-04-24T10:40:45;4.15;;;3.85;;
13026;SDS011;6580;42.680;23.324;2023-04-24T10:43:30;4.15;;;3.85;;
13026;SDS011;6580;42.680;23.324;2023-04-24T10:46:20;4.03;;;3.72;;
13026;SDS011;6580;42.680;23.324;2023-04-24T10:49:06;4.22;;;3.92;;
13026;SDS011;6580;42.680;23.324;2023-04-24T10:51:59;4.00;;;3.60;;
13026;SDS011;6580;42.680;23.324;2023-04-24T10:54:47;4.13;;;3.83;;
13026;SDS011;6580;42.680;23.324;2023-04-24T10:57:33;5.88;;;3.90;;
13026;SDS011;6580;42.680;23.324;2023-04-24T11:00:19;3.70;;;3.40;;
13026;SDS011;6580;42.680;23.324;2023-04-24T11:03:06;4.05;;;3.65;;
13026;SDS011;6580;42.680;23.324;2023-04-24T11:05:58;4.65;;;4.25;;
13026;SDS011;6580;42.680;23.324;2023-04-24T11:08:47;3.97;;;3.67;;
13026;SDS011;6580;42.680;23.324;2023-04-24T11:11:35;4.18;;;3.88;;
13026;SDS011;6580;42.680;23.324;2023-04-24T11:14:25;4.28;;;3.88;;
13026;SDS011;6580;42.680;23.324;2023-04-24T11:17:26;4.47;;;4.07;;
13026;SDS011;6580;42.680;23.324;2023-04-24T11:20:17;4.10;;;3.80;;
13026;SDS011;6580;42.680;23.324;2023-04-24T11:23:03;4.32;;;3.65;;
13026;SDS011;6580;42.680;23.324;2023-04-24T11:29:05;3.75;;;3.45;;
13026;SDS011;6580;42.680;23.324;2023-04-24T11:31:52;3.83;;;3.53;;
13026;SDS011;6580;42.680;23.324;2023-04-24T11:34:38;3.28;;;3.08;;
13026;SDS011;6580;42.680;23.324;2023-04-24T11:37:26;3.75;;;3.45;;
13026;SDS011;6580;42.680;23.324;2023-04-24T11:40:13;3.60;;;3.30;;
13026;SDS011;6580;42.680;23.324;2023-04-24T11:43:01;3.95;;;3.65;;
13026;SDS011;6580;42.680;23.324;2023-04-24T11:45:49;3.60;;;3.35;;
13026;SDS011;6580;42.680;23.324;2023-04-24T11:48:36;3.90;;;3.55;;
13026;SDS011;6580;42.680;23.324;2023-04-24T11:51:24;3.55;;;3.25;;
13026;SDS011;6580;42.680;23.324;2023-04-24T11:54:11;3.97;;;3.28;;
13026;SDS011;6580;42.680;23.324;2023-04-24T11:56:56;3.38;;;3.17;;
13026;SDS011;6580;42.680;23.324;2023-04-24T11:59:45;2.90;;;2.70;;
13026;SDS011;6580;42.680;23.324;2023-04-24T12:02:31;3.13;;;2.92;;
13026;SDS011;6580;42.680;23.324;2023-04-24T12:05:20;3.58;;;3.28;;
13026;SDS011;6580;42.680;23.324;2023-04-24T12:08:06;3.55;;;3.25;;
13026;SDS011;6580;42.680;23.324;2023-04-24T12:10:53;3.70;;;3.45;;
13026;SDS011;6580;42.680;23.324;2023-04-24T12:13:39;3.50;;;3.28;;
13026;SDS011;6580;42.680;23.324;2023-04-24T12:16:27;3.75;;;3.55;;
13026;SDS011;6580;42.680;23.324;2023-04-24T12:19:17;4.25;;;3.60;;
13026;SDS011;6580;42.680;23.324;2023-04-24T12:22:05;3.45;;;3.15;;
13026;SDS011;6580;42.680;23.324;2023-04-24T12:24:58;3.45;;;3.15;;
13026;SDS011;6580;42.680;23.324;2023-04-24T12:27:46;3.58;;;3.28;;
13026;SDS011;6580;42.680;23.324;2023-04-24T12:30:43;3.00;;;2.70;;
13026;SDS011;6580;42.680;23.324;2023-04-24T12:33:38;3.20;;;3.00;;
13026;SDS011;6580;42.680;23.324;2023-04-24T12:36:23;3.08;;;2.88;;
13026;SDS011;6580;42.680;23.324;2023-04-24T12:39:14;3.30;;;3.10;;
13026;SDS011;6580;42.680;23.324;2023-04-24T12:42:00;3.40;;;3.10;;
13026;SDS011;6580;42.680;23.324;2023-04-24T12:44:46;3.50;;;3.20;;
13026;SDS011;6580;42.680;23.324;2023-04-24T12:47:32;3.05;;;2.85;;
13026;SDS011;6580;42.680;23.324;2023-04-24T12:50:23;3.10;;;2.80;;
13026;SDS011;6580;42.680;23.324;2023-04-24T12:53:09;3.03;;;2.83;;
13026;SDS011;6580;42.680;23.324;2023-04-24T12:55:56;3.20;;;3.00;;
13026;SDS011;6580;42.680;23.324;2023-04-24T12:58:42;3.53;;;3.25;;
13026;SDS011;6580;42.680;23.324;2023-04-24T13:01:28;3.10;;;2.90;;
13026;SDS011;6580;42.680;23.324;2023-04-24T13:04:22;4.10;;;3.30;;
13026;SDS011;6580;42.680;23.324;2023-04-24T13:07:11;3.75;;;3.45;;
13026;SDS011;6580;42.680;23.324;2023-04-24T13:09:59;3.42;;;3.22;;
13026;SDS011;6580;42.680;23.324;2023-04-24T13:12:46;3.53;;;3.33;;
13026;SDS011;6580;42.680;23.324;2023-04-24T13:15:32;3.45;;;3.15;;
13026;SDS011;6580;42.680;23.324;2023-04-24T13:18:18;3.88;;;3.53;;
13026;SDS011;6580;42.680;23.324;2023-04-24T13:21:04;3.28;;;3.05;;
13026;SDS011;6580;42.680;23.324;2023-04-24T13:23:54;3.75;;;3.47;;
13026;SDS011;6580;42.680;23.324;2023-04-24T13:26:39;3.60;;;3.30;;
13026;SDS011;6580;42.680;23.324;2023-04-24T13:29:25;3.50;;;3.20;;
13026;SDS011;6580;42.680;23.324;2023-04-24T13:32:14;3.50;;;3.20;;
13026;SDS011;6580;42.680;23.324;2023-04-24T13:35:00;3.33;;;3.10;;
13026;SDS011;6580;42.680;23.324;2023-04-24T13:37:46;3.60;;;3.40;;
13026;SDS011;6580;42.680;23.324;2023-04-24T13:40:34;3.92;;;3.53;;
13026;SDS011;6580;42.680;23.324;2023-04-24T13:43:19;3.50;;;3.20;;
13026;SDS011;6580;42.680;23.324;2023-04-24T13:46:05;4.55;;;4.15;;
13026;SDS011;6580;42.680;23.324;2023-04-24T13:48:51;4.03;;;3.70;;
13026;SDS011;6580;42.680;23.324;2023-04-24T13:51:38;4.18;;;3.80;;
13026;SDS011;6580;42.680;23.324;2023-04-24T13:54:26;3.17;;;2.97;;
13026;SDS011;6580;42.680;23.324;2023-04-24T13:57:13;3.55;;;3.20;;
13026;SDS011;6580;42.680;23.324;2023-04-24T14:00:00;3.28;;;3.03;;
13026;SDS011;6580;42.680;23.324;2023-04-24T14:02:47;3.80;;;3.50;;
13026;SDS011;6580;42.680;23.324;2023-04-24T14:05:33;3.88;;;3.58;;
13026;SDS011;6580;42.680;23.324;2023-04-24T14:08:19;3.55;;;3.33;;
13026;SDS011;6580;42.680;23.324;2023-04-24T14:11:04;3.67;;;3.40;;
13026;SDS011;6580;42.680;23.324;2023-04-24T14:13:52;3.38;;;3.17;;
13026;SDS011;6580;42.680;23.324;2023-04-24T14:16:38;3.78;;;3.47;;
13026;SDS011;6580;42.680;23.324;2023-04-24T14:19:26;4.25;;;3.95;;
13026;SDS011;6580;42.680;23.324;2023-04-24T14:22:12;3.90;;;3.60;;
13026;SDS011;6580;42.680;23.324;2023-04-24T14:24:58;3.72;;;3.42;;
13026;SDS011;6580;42.680;23.324;2023-04-24T14:27:45;3.70;;;3.40;;
13026;SDS011;6580;42.680;23.324;2023-04-24T14:30:32;3.38;;;3.17;;
13026;SDS011;6580;42.680;23.324;2023-04-24T14:33:17;3.55;;;3.33;;
13026;SDS011;6580;42.680;23.324;2023-04-24T14:36:03;3.00;;;2.80;;
13026;SDS011;6580;42.680;23.324;2023-04-24T14:38:50;3.20;;;3.00;;
13026;SDS011;6580;42.680;23.324;2023-04-24T14:41:35;3.15;;;2.90;;
13026;SDS011;6580;42.680;23.324;2023-04-24T14:44:23;3.42;;;3.13;;
13026;SDS011;6580;42.680;23.324;2023-04-24T14:47:12;3.65;;;3.35;;
13026;SDS011;6580;42.680;23.324;2023-04-24T14:49:58;3.42;;;2.80;;
13026;SDS011;6580;42.680;23.324;2023-04-24T14:52:43;3.22;;;3.03;;
13026;SDS011;6580;42.680;23.324;2023-04-24T14:55:29;3.88;;;3.58;;
13026;SDS011;6580;42.680;23.324;2023-04-24T14:58:17;3.47;;;3.28;;
13026;SDS011;6580;42.680;23.324;2023-04-24T15:01:03;3.65;;;3.35;;
13026;SDS011;6580;42.680;23.324;2023-04-24T15:03:50;3.78;;;3.47;;
13026;SDS011;6580;42.680;23.324;2023-04-24T15:07:06;3.50;;;3.30;;
13026;SDS011;6580;42.680;23.324;2023-04-24T15:09:53;3.03;;;2.83;;
13026;SDS011;6580;42.680;23.324;2023-04-24T15:12:39;4.05;;;3.65;;
13026;SDS011;6580;42.680;23.324;2023-04-24T15:15:25;3.97;;;3.67;;
13026;SDS011;6580;42.680;23.324;2023-04-24T15:18:10;4.07;;;3.78;;
13026;SDS011;6580;42.680;23.324;2023-04-24T15:20:57;4.72;;;4.28;;
13026;SDS011;6580;42.680;23.324;2023-04-24T15:23:47;4.30;;;3.90;;
13026;SDS011;6580;42.680;23.324;2023-04-24T15:26:34;4.43;;;4.05;;
13026;SDS011;6580;42.680;23.324;2023-04-24T15:29:20;4.40;;;3.65;;
13026;SDS011;6580;42.680;23.324;2023-04-24T15:32:05;5.03;;;4.15;;
13026;SDS011;6580;42.680;23.324;2023-04-24T15:34:51;4.78;;;4.38;;
13026;SDS011;6580;42.680;23.324;2023-04-24T15:37:36;5.05;;;4.47;;
13026;SDS011;6580;42.680;23.324;2023-04-24T15:40:21;4.65;;;4.25;;
13026;SDS011;6580;42.680;23.324;2023-04-24T15:43:09;5.93;;;3.85;;
13026;SDS011;6580;42.680;23.324;2023-04-24T15:45:54;3.88;;;3.58;;
13026;SDS011;6580;42.680;23.324;2023-04-24T15:48:41;4.25;;;3.90;;
13026;SDS011;6580;42.680;23.324;2023-04-24T15:51:30;5.10;;;4.65;;
13026;SDS011;6580;42.680;23.324;2023-04-24T15:54:15;4.00;;;3.60;;
13026;SDS011;6580;42.680;23.324;2023-04-24T15:57:01;3.90;;;3.58;;
13026;SDS011;6580;42.680;23.324;2023-04-24T15:59:48;4.35;;;3.95;;
13026;SDS011;6580;42.680;23.324;2023-04-24T16:02:34;4.22;;;3.88;;
13026;SDS011;6580;42.680;23.324;2023-04-24T16:05:20;4.88;;;4.47;;
13026;SDS011;6580;42.680;23.324;2023-04-24T16:08:07;6.53;;;5.80;;
13026;SDS011;6580;42.680;23.324;2023-04-24T16:10:55;7.70;;;5.70;;
13026;SDS011;6580;42.680;23.324;2023-04-24T16:13:42;6.53;;;5.70;;
13026;SDS011;6580;42.680;23.324;2023-04-24T16:16:32;7.13;;;5.97;;
13026;SDS011;6580;42.680;23.324;2023-04-24T16:19:21;7.10;;;5.95;;
13026;SDS011;6580;42.680;23.324;2023-04-24T16:22:07;7.70;;;5.78;;
13026;SDS011;6580;42.680;23.324;2023-04-24T16:24:53;5.43;;;4.93;;
13026;SDS011;6580;42.680;23.324;2023-04-24T16:27:39;5.57;;;5.07;;
13026;SDS011;6580;42.680;23.324;2023-04-24T16:30:26;5.50;;;4.90;;
13026;SDS011;6580;42.680;23.324;2023-04-24T16:33:13;5.72;;;5.00;;
13026;SDS011;6580;42.680;23.324;2023-04-24T16:35:59;5.40;;;4.90;;
13026;SDS011;6580;42.680;23.324;2023-04-24T16:38:45;6.10;;;5.50;;
13026;SDS011;6580;42.680;23.324;2023-04-24T16:41:32;5.43;;;4.93;;
13026;SDS011;6580;42.680;23.324;2023-04-24T16:44:18;7.20;;;6.17;;
13026;SDS011;6580;42.680;23.324;2023-04-24T16:47:04;6.23;;;5.63;;
13026;SDS011;6580;42.680;23.324;2023-04-24T16:49:51;6.45;;;5.75;;